Redmond, Utah
Current Conditions -  °F | °C
As of 7:15 AM on Thursday 29 Jan 2015 (Local Time) from KDTA Reporting Station
Clear Clear  
Wind Chill: 33°   Ceiling: Unl
Heat Index: 33°   Visibility: 10mi
Dew Point: 31°   Wind: 3mph
Humidity: 92%   Direction: 200°SSW
Pressure: 30.32"   Gusts: NA
Location:  39.01°N, 111.86°W
Report Text: KDTA 291415Z AUTO 20003KT 10SM CLR 01/00 A3032 RMK AO1 T00061005
Loading
Personal Weather Stations






























Interactive Weather Map New forecast layout! Learn more

10-Day Weather Forecast

Advertisements
Track Severe Weather on mobile